sensor_id;sensor_type;location;lat;lon;timestamp;temperature;humidity
53412;DHT22;39307;52.870;13.660;2024-02-21T00:00:21;6.90;73.20
53412;DHT22;39307;52.870;13.660;2024-02-21T00:02:48;6.90;73.10
53412;DHT22;39307;52.870;13.660;2024-02-21T00:05:15;6.90;73.10
53412;DHT22;39307;52.870;13.660;2024-02-21T00:07:42;6.90;73.10
53412;DHT22;39307;52.870;13.660;2024-02-21T00:10:09;6.90;73.10
53412;DHT22;39307;52.870;13.660;2024-02-21T00:12:35;6.90;73.10
53412;DHT22;39307;52.870;13.660;2024-02-21T00:15:02;6.90;73.10
53412;DHT22;39307;52.870;13.660;2024-02-21T00:17:29;6.90;73.10
53412;DHT22;39307;52.870;13.660;2024-02-21T00:19:56;6.90;73.10
53412;DHT22;39307;52.870;13.660;2024-02-21T00:22:23;6.90;73.10
53412;DHT22;39307;52.870;13.660;2024-02-21T00:24:50;6.90;73.10
53412;DHT22;39307;52.870;13.660;2024-02-21T00:27:17;6.90;73.10
53412;DHT22;39307;52.870;13.660;2024-02-21T00:29:43;6.90;73.10
53412;DHT22;39307;52.870;13.660;2024-02-21T00:32:10;6.90;73.10
53412;DHT22;39307;52.870;13.660;2024-02-21T00:34:37;6.90;73.10
53412;DHT22;39307;52.870;13.660;2024-02-21T00:37:04;6.90;73.10
53412;DHT22;39307;52.870;13.660;2024-02-21T00:39:31;6.90;73.10
53412;DHT22;39307;52.870;13.660;2024-02-21T00:41:58;6.90;73.10
53412;DHT22;39307;52.870;13.660;2024-02-21T00:44:24;6.90;73.10
53412;DHT22;39307;52.870;13.660;2024-02-21T00:46:51;6.90;73.10
53412;DHT22;39307;52.870;13.660;2024-02-21T00:49:18;6.90;73.10
53412;DHT22;39307;52.870;13.660;2024-02-21T00:51:45;6.90;73.10
53412;DHT22;39307;52.870;13.660;2024-02-21T00:54:12;6.90;73.10
53412;DHT22;39307;52.870;13.660;2024-02-21T00:56:39;6.90;73.10
53412;DHT22;39307;52.870;13.660;2024-02-21T00:59:05;6.90;73.10
53412;DHT22;39307;52.870;13.660;2024-02-21T01:01:32;6.90;73.20
53412;DHT22;39307;52.870;13.660;2024-02-21T01:03:59;6.90;73.20
53412;DHT22;39307;52.870;13.660;2024-02-21T01:06:28;6.90;73.10
53412;DHT22;39307;52.870;13.660;2024-02-21T01:08:56;6.90;73.10
53412;DHT22;39307;52.870;13.660;2024-02-21T01:11:23;6.90;73.10
53412;DHT22;39307;52.870;13.660;2024-02-21T01:13:50;6.80;73.10
53412;DHT22;39307;52.870;13.660;2024-02-21T01:16:17;6.90;73.10
53412;DHT22;39307;52.870;13.660;2024-02-21T01:18:43;6.90;73.10
53412;DHT22;39307;52.870;13.660;2024-02-21T01:21:10;6.90;73.10
53412;DHT22;39307;52.870;13.660;2024-02-21T01:23:37;6.90;73.10
53412;DHT22;39307;52.870;13.660;2024-02-21T01:26:04;6.90;73.10
53412;DHT22;39307;52.870;13.660;2024-02-21T01:28:31;6.90;73.10
53412;DHT22;39307;52.870;13.660;2024-02-21T01:30:58;6.90;73.10
53412;DHT22;39307;52.870;13.660;2024-02-21T01:33:25;6.90;73.10
53412;DHT22;39307;52.870;13.660;2024-02-21T01:35:53;6.90;73.10
53412;DHT22;39307;52.870;13.660;2024-02-21T01:38:19;6.90;73.10
53412;DHT22;39307;52.870;13.660;2024-02-21T01:40:46;6.90;73.10
53412;DHT22;39307;52.870;13.660;2024-02-21T01:43:20;6.90;73.10
53412;DHT22;39307;52.870;13.660;2024-02-21T01:45:57;6.90;73.10
53412;DHT22;39307;52.870;13.660;2024-02-21T01:48:25;6.90;73.10
53412;DHT22;39307;52.870;13.660;2024-02-21T01:50:54;6.90;73.10
53412;DHT22;39307;52.870;13.660;2024-02-21T01:53:36;6.90;73.10
53412;DHT22;39307;52.870;13.660;2024-02-21T01:56:09;6.90;73.10
53412;DHT22;39307;52.870;13.660;2024-02-21T01:58:37;6.90;73.20
53412;DHT22;39307;52.870;13.660;2024-02-21T02:01:06;6.90;73.10
53412;DHT22;39307;52.870;13.660;2024-02-21T02:03:33;6.90;73.10
53412;DHT22;39307;52.870;13.660;2024-02-21T02:06:00;6.80;73.10
53412;DHT22;39307;52.870;13.660;2024-02-21T02:08:27;6.80;73.10
53412;DHT22;39307;52.870;13.660;2024-02-21T02:10:54;6.80;73.10
53412;DHT22;39307;52.870;13.660;2024-02-21T02:13:21;6.80;73.10
53412;DHT22;39307;52.870;13.660;2024-02-21T02:15:49;6.80;73.10
53412;DHT22;39307;52.870;13.660;2024-02-21T02:18:17;6.90;73.10
53412;DHT22;39307;52.870;13.660;2024-02-21T02:20:46;6.90;73.10
53412;DHT22;39307;52.870;13.660;2024-02-21T02:23:31;6.80;73.10
53412;DHT22;39307;52.870;13.660;2024-02-21T02:25:59;6.90;73.10
53412;DHT22;39307;52.870;13.660;2024-02-21T02:28:26;6.90;73.20
53412;DHT22;39307;52.870;13.660;2024-02-21T02:30:53;6.80;73.10
53412;DHT22;39307;52.870;13.660;2024-02-21T02:33:20;6.80;73.10
53412;DHT22;39307;52.870;13.660;2024-02-21T02:35:47;6.80;73.10
53412;DHT22;39307;52.870;13.660;2024-02-21T02:38:14;6.80;73.10
53412;DHT22;39307;52.870;13.660;2024-02-21T02:40:41;6.80;73.10
53412;DHT22;39307;52.870;13.660;2024-02-21T02:43:08;6.80;73.10
53412;DHT22;39307;52.870;13.660;2024-02-21T02:45:36;6.80;73.20
53412;DHT22;39307;52.870;13.660;2024-02-21T02:48:03;6.80;73.20
53412;DHT22;39307;52.870;13.660;2024-02-21T02:50:30;6.90;73.20
53412;DHT22;39307;52.870;13.660;2024-02-21T02:52:56;6.80;73.10
53412;DHT22;39307;52.870;13.660;2024-02-21T02:55:23;6.80;73.10
53412;DHT22;39307;52.870;13.660;2024-02-21T02:57:50;6.80;73.10
53412;DHT22;39307;52.870;13.660;2024-02-21T03:00:17;6.80;73.20
53412;DHT22;39307;52.870;13.660;2024-02-21T03:02:45;6.90;73.20
53412;DHT22;39307;52.870;13.660;2024-02-21T03:05:17;6.80;73.20
53412;DHT22;39307;52.870;13.660;2024-02-21T03:07:46;6.90;73.10
53412;DHT22;39307;52.870;13.660;2024-02-21T03:10:14;6.80;73.10
53412;DHT22;39307;52.870;13.660;2024-02-21T03:12:41;6.80;73.10
53412;DHT22;39307;52.870;13.660;2024-02-21T03:15:08;6.80;73.20
53412;DHT22;39307;52.870;13.660;2024-02-21T03:17:35;6.80;73.10
53412;DHT22;39307;52.870;13.660;2024-02-21T03:20:02;6.80;73.20
53412;DHT22;39307;52.870;13.660;2024-02-21T03:22:30;6.80;73.20
53412;DHT22;39307;52.870;13.660;2024-02-21T03:24:57;6.80;73.20
53412;DHT22;39307;52.870;13.660;2024-02-21T03:27:24;6.80;73.20
53412;DHT22;39307;52.870;13.660;2024-02-21T03:29:50;6.80;73.20
53412;DHT22;39307;52.870;13.660;2024-02-21T03:32:17;6.80;73.20
53412;DHT22;39307;52.870;13.660;2024-02-21T03:34:44;6.80;73.20
53412;DHT22;39307;52.870;13.660;2024-02-21T03:37:11;6.80;73.20
53412;DHT22;39307;52.870;13.660;2024-02-21T03:39:38;6.80;73.10
53412;DHT22;39307;52.870;13.660;2024-02-21T03:42:05;6.80;73.20
53412;DHT22;39307;52.870;13.660;2024-02-21T03:44:33;6.80;73.20
53412;DHT22;39307;52.870;13.660;2024-02-21T03:47:00;6.80;73.20
53412;DHT22;39307;52.870;13.660;2024-02-21T03:49:27;6.80;73.20
53412;DHT22;39307;52.870;13.660;2024-02-21T03:51:54;6.80;73.20
53412;DHT22;39307;52.870;13.660;2024-02-21T03:54:21;6.80;73.20
53412;DHT22;39307;52.870;13.660;2024-02-21T03:56:47;6.80;73.20
53412;DHT22;39307;52.870;13.660;2024-02-21T03:59:14;6.80;73.20
53412;DHT22;39307;52.870;13.660;2024-02-21T04:01:42;6.80;73.20
53412;DHT22;39307;52.870;13.660;2024-02-21T04:04:09;6.80;73.20
53412;DHT22;39307;52.870;13.660;2024-02-21T04:06:36;6.80;73.20
53412;DHT22;39307;52.870;13.660;2024-02-21T04:09:03;6.80;73.20
53412;DHT22;39307;52.870;13.660;2024-02-21T04:11:30;6.80;73.20
53412;DHT22;39307;52.870;13.660;2024-02-21T04:13:56;6.80;73.20
53412;DHT22;39307;52.870;13.660;2024-02-21T04:16:23;6.80;73.20
53412;DHT22;39307;52.870;13.660;2024-02-21T04:18:50;6.80;73.20
53412;DHT22;39307;52.870;13.660;2024-02-21T04:21:17;6.80;73.20
53412;DHT22;39307;52.870;13.660;2024-02-21T04:23:44;6.80;73.20
53412;DHT22;39307;52.870;13.660;2024-02-21T04:26:10;6.80;73.20
53412;DHT22;39307;52.870;13.660;2024-02-21T04:28:37;6.80;73.20
53412;DHT22;39307;52.870;13.660;2024-02-21T04:31:04;6.80;73.20
53412;DHT22;39307;52.870;13.660;2024-02-21T04:33:31;6.80;73.20
53412;DHT22;39307;52.870;13.660;2024-02-21T04:35:58;6.80;73.20
53412;DHT22;39307;52.870;13.660;2024-02-21T04:38:25;6.80;73.20
53412;DHT22;39307;52.870;13.660;2024-02-21T04:40:52;6.80;73.20
53412;DHT22;39307;52.870;13.660;2024-02-21T04:43:19;6.80;73.20
53412;DHT22;39307;52.870;13.660;2024-02-21T04:45:46;6.80;73.20
53412;DHT22;39307;52.870;13.660;2024-02-21T04:48:12;6.80;73.20
53412;DHT22;39307;52.870;13.660;2024-02-21T04:50:39;6.80;73.20
53412;DHT22;39307;52.870;13.660;2024-02-21T04:53:06;6.80;73.20
53412;DHT22;39307;52.870;13.660;2024-02-21T04:55:33;6.80;73.20
53412;DHT22;39307;52.870;13.660;2024-02-21T04:58:00;6.80;73.20
53412;DHT22;39307;52.870;13.660;2024-02-21T05:00:26;6.80;73.20
53412;DHT22;39307;52.870;13.660;2024-02-21T05:02:54;6.80;73.20
53412;DHT22;39307;52.870;13.660;2024-02-21T05:05:21;6.80;73.20
53412;DHT22;39307;52.870;13.660;2024-02-21T05:07:48;6.80;73.20
53412;DHT22;39307;52.870;13.660;2024-02-21T05:10:15;6.80;73.20
53412;DHT22;39307;52.870;13.660;2024-02-21T05:12:42;6.80;73.30
53412;DHT22;39307;52.870;13.660;2024-02-21T05:15:09;6.80;73.20
53412;DHT22;39307;52.870;13.660;2024-02-21T05:17:36;6.80;73.20
53412;DHT22;39307;52.870;13.660;2024-02-21T05:20:03;6.80;73.20
53412;DHT22;39307;52.870;13.660;2024-02-21T05:22:29;6.80;73.20
53412;DHT22;39307;52.870;13.660;2024-02-21T05:24:56;6.80;73.20
53412;DHT22;39307;52.870;13.660;2024-02-21T05:27:23;6.80;73.20
53412;DHT22;39307;52.870;13.660;2024-02-21T05:29:50;6.80;73.20
53412;DHT22;39307;52.870;13.660;2024-02-21T05:32:16;6.80;73.30
53412;DHT22;39307;52.870;13.660;2024-02-21T05:34:43;6.80;73.20
53412;DHT22;39307;52.870;13.660;2024-02-21T05:37:10;6.80;73.20
53412;DHT22;39307;52.870;13.660;2024-02-21T05:39:37;6.80;73.20
53412;DHT22;39307;52.870;13.660;2024-02-21T05:42:04;6.80;73.20
53412;DHT22;39307;52.870;13.660;2024-02-21T05:44:31;6.80;73.30
53412;DHT22;39307;52.870;13.660;2024-02-21T05:46:58;6.80;73.20
53412;DHT22;39307;52.870;13.660;2024-02-21T05:49:24;6.80;73.20
53412;DHT22;39307;52.870;13.660;2024-02-21T05:51:51;6.80;73.30
53412;DHT22;39307;52.870;13.660;2024-02-21T05:54:18;6.80;73.30
53412;DHT22;39307;52.870;13.660;2024-02-21T05:56:45;6.80;73.30
53412;DHT22;39307;52.870;13.660;2024-02-21T05:59:12;6.80;73.30
53412;DHT22;39307;52.870;13.660;2024-02-21T06:01:39;6.80;73.30
53412;DHT22;39307;52.870;13.660;2024-02-21T06:04:06;6.80;73.30
53412;DHT22;39307;52.870;13.660;2024-02-21T06:06:33;6.80;73.30
53412;DHT22;39307;52.870;13.660;2024-02-21T06:09:00;6.80;73.30
53412;DHT22;39307;52.870;13.660;2024-02-21T06:11:27;6.80;73.30
53412;DHT22;39307;52.870;13.660;2024-02-21T06:13:53;6.80;73.30
53412;DHT22;39307;52.870;13.660;2024-02-21T06:16:20;6.80;73.30
53412;DHT22;39307;52.870;13.660;2024-02-21T06:18:47;6.80;73.30
53412;DHT22;39307;52.870;13.660;2024-02-21T06:21:14;6.80;73.30
53412;DHT22;39307;52.870;13.660;2024-02-21T06:23:41;6.80;73.30
53412;DHT22;39307;52.870;13.660;2024-02-21T06:26:08;6.80;73.30
53412;DHT22;39307;52.870;13.660;2024-02-21T06:28:35;6.80;73.30
53412;DHT22;39307;52.870;13.660;2024-02-21T06:31:02;6.80;73.30
53412;DHT22;39307;52.870;13.660;2024-02-21T06:33:29;6.80;73.30
53412;DHT22;39307;52.870;13.660;2024-02-21T06:35:56;6.80;73.30
53412;DHT22;39307;52.870;13.660;2024-02-21T06:38:22;6.80;73.30
53412;DHT22;39307;52.870;13.660;2024-02-21T06:40:49;6.80;73.30
53412;DHT22;39307;52.870;13.660;2024-02-21T06:43:20;6.80;73.30
53412;DHT22;39307;52.870;13.660;2024-02-21T06:45:47;6.80;73.30
53412;DHT22;39307;52.870;13.660;2024-02-21T06:48:14;6.80;73.30
53412;DHT22;39307;52.870;13.660;2024-02-21T06:50:41;6.80;73.30
53412;DHT22;39307;52.870;13.660;2024-02-21T06:53:08;6.80;73.30
53412;DHT22;39307;52.870;13.660;2024-02-21T06:55:35;6.80;73.30
53412;DHT22;39307;52.870;13.660;2024-02-21T06:58:01;6.80;73.30
53412;DHT22;39307;52.870;13.660;2024-02-21T07:00:31;6.80;73.30
53412;DHT22;39307;52.870;13.660;2024-02-21T07:02:58;6.80;73.30
53412;DHT22;39307;52.870;13.660;2024-02-21T07:05:25;6.80;73.30
53412;DHT22;39307;52.870;13.660;2024-02-21T07:07:52;6.80;73.30
53412;DHT22;39307;52.870;13.660;2024-02-21T07:10:19;6.80;73.30
53412;DHT22;39307;52.870;13.660;2024-02-21T07:12:45;6.80;73.20
53412;DHT22;39307;52.870;13.660;2024-02-21T07:15:12;6.80;73.30
53412;DHT22;39307;52.870;13.660;2024-02-21T07:17:39;6.80;73.30
53412;DHT22;39307;52.870;13.660;2024-02-21T07:20:06;6.80;73.30
53412;DHT22;39307;52.870;13.660;2024-02-21T07:22:34;6.80;73.30
53412;DHT22;39307;52.870;13.660;2024-02-21T07:25:01;6.80;73.30
53412;DHT22;39307;52.870;13.660;2024-02-21T07:27:28;6.80;73.30
53412;DHT22;39307;52.870;13.660;2024-02-21T07:29:55;6.80;73.30
53412;DHT22;39307;52.870;13.660;2024-02-21T07:32:22;6.80;73.30
53412;DHT22;39307;52.870;13.660;2024-02-21T07:34:48;6.80;73.30
53412;DHT22;39307;52.870;13.660;2024-02-21T07:37:15;6.80;73.30
53412;DHT22;39307;52.870;13.660;2024-02-21T07:39:42;6.80;73.30
53412;DHT22;39307;52.870;13.660;2024-02-21T07:42:08;6.80;73.30
53412;DHT22;39307;52.870;13.660;2024-02-21T07:44:35;6.80;73.30
53412;DHT22;39307;52.870;13.660;2024-02-21T07:47:02;6.80;73.30
53412;DHT22;39307;52.870;13.660;2024-02-21T07:49:29;6.80;73.30
53412;DHT22;39307;52.870;13.660;2024-02-21T07:51:57;6.80;73.30
53412;DHT22;39307;52.870;13.660;2024-02-21T07:54:27;6.80;73.30
53412;DHT22;39307;52.870;13.660;2024-02-21T07:56:53;6.80;73.30
53412;DHT22;39307;52.870;13.660;2024-02-21T07:59:21;6.80;73.30
53412;DHT22;39307;52.870;13.660;2024-02-21T08:01:47;6.80;73.30
53412;DHT22;39307;52.870;13.660;2024-02-21T08:04:14;6.80;73.30
53412;DHT22;39307;52.870;13.660;2024-02-21T08:06:41;6.80;73.30
53412;DHT22;39307;52.870;13.660;2024-02-21T08:09:07;6.80;73.30
53412;DHT22;39307;52.870;13.660;2024-02-21T08:11:35;6.80;73.30
53412;DHT22;39307;52.870;13.660;2024-02-21T08:14:01;6.80;73.30
53412;DHT22;39307;52.870;13.660;2024-02-21T08:16:28;6.80;73.30
53412;DHT22;39307;52.870;13.660;2024-02-21T08:18:55;6.80;73.30
53412;DHT22;39307;52.870;13.660;2024-02-21T08:21:22;6.80;73.30
53412;DHT22;39307;52.870;13.660;2024-02-21T08:23:49;6.80;73.30
53412;DHT22;39307;52.870;13.660;2024-02-21T08:26:16;6.80;73.30
53412;DHT22;39307;52.870;13.660;2024-02-21T08:28:42;6.80;73.30
53412;DHT22;39307;52.870;13.660;2024-02-21T08:31:09;6.80;73.30
53412;DHT22;39307;52.870;13.660;2024-02-21T08:33:36;6.80;73.30
53412;DHT22;39307;52.870;13.660;2024-02-21T08:36:03;6.80;73.30
53412;DHT22;39307;52.870;13.660;2024-02-21T08:38:31;6.80;73.30
53412;DHT22;39307;52.870;13.660;2024-02-21T08:40:58;6.80;73.40
53412;DHT22;39307;52.870;13.660;2024-02-21T08:43:24;6.80;73.40
53412;DHT22;39307;52.870;13.660;2024-02-21T08:45:51;6.80;73.30
53412;DHT22;39307;52.870;13.660;2024-02-21T08:48:18;6.80;73.30
53412;DHT22;39307;52.870;13.660;2024-02-21T08:50:54;6.80;73.30
53412;DHT22;39307;52.870;13.660;2024-02-21T08:53:21;6.80;73.30
53412;DHT22;39307;52.870;13.660;2024-02-21T08:55:48;6.80;73.30
53412;DHT22;39307;52.870;13.660;2024-02-21T08:58:14;6.80;73.30
53412;DHT22;39307;52.870;13.660;2024-02-21T09:00:41;6.80;73.30
53412;DHT22;39307;52.870;13.660;2024-02-21T09:03:08;6.80;73.30
53412;DHT22;39307;52.870;13.660;2024-02-21T09:05:35;6.80;73.40
53412;DHT22;39307;52.870;13.660;2024-02-21T09:08:02;6.80;73.30
53412;DHT22;39307;52.870;13.660;2024-02-21T09:10:29;6.80;73.30
53412;DHT22;39307;52.870;13.660;2024-02-21T09:12:56;6.80;73.40
53412;DHT22;39307;52.870;13.660;2024-02-21T09:15:23;6.80;73.30
53412;DHT22;39307;52.870;13.660;2024-02-21T09:17:49;6.80;73.30
53412;DHT22;39307;52.870;13.660;2024-02-21T09:20:16;6.80;73.30
53412;DHT22;39307;52.870;13.660;2024-02-21T09:22:43;6.80;73.30
53412;DHT22;39307;52.870;13.660;2024-02-21T09:25:10;6.80;73.30
53412;DHT22;39307;52.870;13.660;2024-02-21T09:27:37;6.80;73.30
53412;DHT22;39307;52.870;13.660;2024-02-21T09:30:05;6.80;73.30
53412;DHT22;39307;52.870;13.660;2024-02-21T09:32:33;6.80;73.30
53412;DHT22;39307;52.870;13.660;2024-02-21T09:34:59;6.80;73.40
53412;DHT22;39307;52.870;13.660;2024-02-21T09:37:26;6.80;73.30
53412;DHT22;39307;52.870;13.660;2024-02-21T09:39:53;6.80;73.30
53412;DHT22;39307;52.870;13.660;2024-02-21T09:42:21;6.80;73.30
53412;DHT22;39307;52.870;13.660;2024-02-21T09:44:48;6.80;73.30
53412;DHT22;39307;52.870;13.660;2024-02-21T09:50:29;6.80;73.30
53412;DHT22;39307;52.870;13.660;2024-02-21T09:52:58;6.80;73.40
53412;DHT22;39307;52.870;13.660;2024-02-21T09:55:26;6.80;73.30
53412;DHT22;39307;52.870;13.660;2024-02-21T09:57:54;6.80;73.30
53412;DHT22;39307;52.870;13.660;2024-02-21T10:00:21;6.80;73.40
53412;DHT22;39307;52.870;13.660;2024-02-21T10:02:48;6.80;73.40
53412;DHT22;39307;52.870;13.660;2024-02-21T10:05:16;6.80;73.40
53412;DHT22;39307;52.870;13.660;2024-02-21T10:07:43;6.80;73.40
53412;DHT22;39307;52.870;13.660;2024-02-21T10:10:10;6.80;73.40
53412;DHT22;39307;52.870;13.660;2024-02-21T10:12:47;6.80;73.40
53412;DHT22;39307;52.870;13.660;2024-02-21T10:15:20;6.80;73.40
53412;DHT22;39307;52.870;13.660;2024-02-21T10:17:48;6.80;73.40
53412;DHT22;39307;52.870;13.660;2024-02-21T10:20:15;6.80;73.40
53412;DHT22;39307;52.870;13.660;2024-02-21T10:22:42;6.80;73.40
53412;DHT22;39307;52.870;13.660;2024-02-21T10:25:12;6.80;73.50
53412;DHT22;39307;52.870;13.660;2024-02-21T10:27:40;6.80;73.60
53412;DHT22;39307;52.870;13.660;2024-02-21T10:30:25;6.80;73.50
53412;DHT22;39307;52.870;13.660;2024-02-21T10:32:55;6.80;73.60
53412;DHT22;39307;52.870;13.660;2024-02-21T10:35:30;6.80;73.50
53412;DHT22;39307;52.870;13.660;2024-02-21T10:38:00;6.80;73.50
53412;DHT22;39307;52.870;13.660;2024-02-21T10:40:28;6.80;73.50
53412;DHT22;39307;52.870;13.660;2024-02-21T10:43:02;6.80;73.40
53412;DHT22;39307;52.870;13.660;2024-02-21T10:45:35;6.80;73.40
53412;DHT22;39307;52.870;13.660;2024-02-21T10:48:14;6.80;73.50
53412;DHT22;39307;52.870;13.660;2024-02-21T10:51:07;6.80;73.50
53412;DHT22;39307;52.870;13.660;2024-02-21T10:57:04;6.80;73.50
53412;DHT22;39307;52.870;13.660;2024-02-21T10:59:32;6.80;73.50
53412;DHT22;39307;52.870;13.660;2024-02-21T11:01:59;6.80;73.60
53412;DHT22;39307;52.870;13.660;2024-02-21T11:04:27;6.80;73.50
53412;DHT22;39307;52.870;13.660;2024-02-21T11:06:54;6.80;73.60
53412;DHT22;39307;52.870;13.660;2024-02-21T11:09:30;6.80;73.60
53412;DHT22;39307;52.870;13.660;2024-02-21T11:11:58;6.80;73.60
53412;DHT22;39307;52.870;13.660;2024-02-21T11:14:29;6.80;73.60
53412;DHT22;39307;52.870;13.660;2024-02-21T11:16:56;6.80;73.50
53412;DHT22;39307;52.870;13.660;2024-02-21T11:19:25;6.80;73.50
53412;DHT22;39307;52.870;13.660;2024-02-21T11:21:54;6.80;73.50
53412;DHT22;39307;52.870;13.660;2024-02-21T11:24:32;6.80;73.60
53412;DHT22;39307;52.870;13.660;2024-02-21T11:27:33;6.80;73.50
53412;DHT22;39307;52.870;13.660;2024-02-21T11:30:05;6.80;73.50
53412;DHT22;39307;52.870;13.660;2024-02-21T11:32:32;6.80;73.50
53412;DHT22;39307;52.870;13.660;2024-02-21T11:35:00;6.80;73.50
53412;DHT22;39307;52.870;13.660;2024-02-21T11:37:28;6.80;73.50
53412;DHT22;39307;52.870;13.660;2024-02-21T11:39:56;6.80;73.50
53412;DHT22;39307;52.870;13.660;2024-02-21T11:42:25;6.80;73.50
53412;DHT22;39307;52.870;13.660;2024-02-21T11:44:53;6.80;73.60
53412;DHT22;39307;52.870;13.660;2024-02-21T11:47:20;6.80;73.60
53412;DHT22;39307;52.870;13.660;2024-02-21T11:49:48;6.80;73.60
53412;DHT22;39307;52.870;13.660;2024-02-21T11:52:15;6.80;73.50
53412;DHT22;39307;52.870;13.660;2024-02-21T11:54:43;6.80;73.60
53412;DHT22;39307;52.870;13.660;2024-02-21T11:57:10;6.80;73.50
53412;DHT22;39307;52.870;13.660;2024-02-21T11:59:39;6.80;73.60
53412;DHT22;39307;52.870;13.660;2024-02-21T12:02:07;6.80;73.60
53412;DHT22;39307;52.870;13.660;2024-02-21T12:04:34;6.80;73.60
53412;DHT22;39307;52.870;13.660;2024-02-21T12:07:02;6.80;73.50
53412;DHT22;39307;52.870;13.660;2024-02-21T12:09:28;6.80;73.50
53412;DHT22;39307;52.870;13.660;2024-02-21T12:12:00;6.80;73.50
53412;DHT22;39307;52.870;13.660;2024-02-21T12:14:29;6.80;73.50
53412;DHT22;39307;52.870;13.660;2024-02-21T12:16:56;6.80;73.60
53412;DHT22;39307;52.870;13.660;2024-02-21T12:19:24;6.80;73.50
53412;DHT22;39307;52.870;13.660;2024-02-21T12:21:51;6.80;73.50
53412;DHT22;39307;52.870;13.660;2024-02-21T12:24:27;6.80;73.60
53412;DHT22;39307;52.870;13.660;2024-02-21T12:26:55;6.80;73.50
53412;DHT22;39307;52.870;13.660;2024-02-21T12:29:23;6.80;73.70
53412;DHT22;39307;52.870;13.660;2024-02-21T12:31:50;6.80;73.70
53412;DHT22;39307;52.870;13.660;2024-02-21T12:34:18;6.80;73.60
53412;DHT22;39307;52.870;13.660;2024-02-21T12:36:45;6.80;73.80
53412;DHT22;39307;52.870;13.660;2024-02-21T12:39:12;6.80;73.70
53412;DHT22;39307;52.870;13.660;2024-02-21T12:41:39;6.80;73.70
53412;DHT22;39307;52.870;13.660;2024-02-21T12:44:07;6.80;73.70
53412;DHT22;39307;52.870;13.660;2024-02-21T12:46:35;6.80;73.70
53412;DHT22;39307;52.870;13.660;2024-02-21T12:49:05;6.80;73.70
53412;DHT22;39307;52.870;13.660;2024-02-21T12:51:32;6.80;73.60
53412;DHT22;39307;52.870;13.660;2024-02-21T12:53:59;6.80;73.60
53412;DHT22;39307;52.870;13.660;2024-02-21T12:56:26;6.80;73.60
53412;DHT22;39307;52.870;13.660;2024-02-21T12:58:53;6.80;73.70
53412;DHT22;39307;52.870;13.660;2024-02-21T13:01:20;6.80;73.90
53412;DHT22;39307;52.870;13.660;2024-02-21T13:03:47;6.80;73.90
53412;DHT22;39307;52.870;13.660;2024-02-21T13:06:13;6.80;73.70
53412;DHT22;39307;52.870;13.660;2024-02-21T13:08:40;6.80;73.70
53412;DHT22;39307;52.870;13.660;2024-02-21T13:11:08;6.80;73.60
53412;DHT22;39307;52.870;13.660;2024-02-21T13:13:34;6.80;73.70
53412;DHT22;39307;52.870;13.660;2024-02-21T13:16:02;6.80;73.60
53412;DHT22;39307;52.870;13.660;2024-02-21T13:18:29;6.80;73.60
53412;DHT22;39307;52.870;13.660;2024-02-21T13:20:56;6.80;73.60
53412;DHT22;39307;52.870;13.660;2024-02-21T13:23:23;6.80;73.60
53412;DHT22;39307;52.870;13.660;2024-02-21T13:25:50;6.80;73.60
53412;DHT22;39307;52.870;13.660;2024-02-21T13:28:16;6.80;73.50
53412;DHT22;39307;52.870;13.660;2024-02-21T13:30:44;6.80;73.60
53412;DHT22;39307;52.870;13.660;2024-02-21T13:33:10;6.80;73.60
53412;DHT22;39307;52.870;13.660;2024-02-21T13:35:37;6.80;73.60
53412;DHT22;39307;52.870;13.660;2024-02-21T13:38:04;6.80;73.50
53412;DHT22;39307;52.870;13.660;2024-02-21T13:40:32;6.80;73.60
53412;DHT22;39307;52.870;13.660;2024-02-21T13:42:58;6.80;73.70
53412;DHT22;39307;52.870;13.660;2024-02-21T13:45:25;6.80;73.70
53412;DHT22;39307;52.870;13.660;2024-02-21T13:47:52;6.80;73.70
53412;DHT22;39307;52.870;13.660;2024-02-21T13:50:21;6.90;73.60
53412;DHT22;39307;52.870;13.660;2024-02-21T13:52:49;6.80;73.60
53412;DHT22;39307;52.870;13.660;2024-02-21T13:55:16;6.80;73.50
53412;DHT22;39307;52.870;13.660;2024-02-21T13:57:43;6.80;73.60
53412;DHT22;39307;52.870;13.660;2024-02-21T14:00:10;6.80;73.70
53412;DHT22;39307;52.870;13.660;2024-02-21T14:02:37;6.80;73.70
53412;DHT22;39307;52.870;13.660;2024-02-21T14:05:05;6.80;73.60
53412;DHT22;39307;52.870;13.660;2024-02-21T14:07:32;6.90;73.60
53412;DHT22;39307;52.870;13.660;2024-02-21T14:09:59;6.90;73.70
53412;DHT22;39307;52.870;13.660;2024-02-21T14:12:26;6.80;73.70
53412;DHT22;39307;52.870;13.660;2024-02-21T14:14:52;6.80;73.70
53412;DHT22;39307;52.870;13.660;2024-02-21T14:17:19;6.80;73.60
53412;DHT22;39307;52.870;13.660;2024-02-21T14:19:46;6.90;73.60
53412;DHT22;39307;52.870;13.660;2024-02-21T14:22:13;6.80;73.70
53412;DHT22;39307;52.870;13.660;2024-02-21T14:24:40;6.90;73.70
53412;DHT22;39307;52.870;13.660;2024-02-21T14:27:08;6.90;73.80
53412;DHT22;39307;52.870;13.660;2024-02-21T14:29:35;6.80;73.70
53412;DHT22;39307;52.870;13.660;2024-02-21T14:32:02;6.80;73.70
53412;DHT22;39307;52.870;13.660;2024-02-21T14:34:29;6.90;73.80
53412;DHT22;39307;52.870;13.660;2024-02-21T14:36:56;6.90;73.80
53412;DHT22;39307;52.870;13.660;2024-02-21T14:39:23;6.90;73.70
53412;DHT22;39307;52.870;13.660;2024-02-21T14:41:50;6.90;73.80
53412;DHT22;39307;52.870;13.660;2024-02-21T14:44:17;6.90;73.70
53412;DHT22;39307;52.870;13.660;2024-02-21T14:46:44;6.90;73.70
53412;DHT22;39307;52.870;13.660;2024-02-21T14:49:11;6.90;73.80
53412;DHT22;39307;52.870;13.660;2024-02-21T14:51:38;6.90;73.90
53412;DHT22;39307;52.870;13.660;2024-02-21T14:54:05;6.90;73.80
53412;DHT22;39307;52.870;13.660;2024-02-21T14:56:32;6.90;73.80
53412;DHT22;39307;52.870;13.660;2024-02-21T14:58:58;6.90;73.70
53412;DHT22;39307;52.870;13.660;2024-02-21T15:01:25;6.90;73.70
53412;DHT22;39307;52.870;13.660;2024-02-21T15:03:52;6.90;73.70
53412;DHT22;39307;52.870;13.660;2024-02-21T15:06:19;6.90;73.70
53412;DHT22;39307;52.870;13.660;2024-02-21T15:08:46;6.90;73.80
53412;DHT22;39307;52.870;13.660;2024-02-21T15:11:13;6.90;73.80
53412;DHT22;39307;52.870;13.660;2024-02-21T15:13:39;6.90;73.70
53412;DHT22;39307;52.870;13.660;2024-02-21T15:16:06;6.90;73.70
53412;DHT22;39307;52.870;13.660;2024-02-21T15:18:33;6.90;73.60
53412;DHT22;39307;52.870;13.660;2024-02-21T15:21:00;6.90;73.60
53412;DHT22;39307;52.870;13.660;2024-02-21T15:23:27;6.90;73.60
53412;DHT22;39307;52.870;13.660;2024-02-21T15:25:54;6.90;73.70
53412;DHT22;39307;52.870;13.660;2024-02-21T15:28:20;6.90;73.60
53412;DHT22;39307;52.870;13.660;2024-02-21T15:30:47;6.90;73.60
53412;DHT22;39307;52.870;13.660;2024-02-21T15:33:14;6.90;73.60
53412;DHT22;39307;52.870;13.660;2024-02-21T15:35:41;6.90;73.50
53412;DHT22;39307;52.870;13.660;2024-02-21T15:38:07;6.90;73.50